Eurodam — PHOS — position and weather

sailwx.info

Track history (hours):
 
Tides and Currents Weather Stations Pressure Air Temp Water Temp Dewpoint Dewpoint Depression Visibility Wind Speed Wind Dir Waves Ship Positions

Eurodam (Netherlands)

Last reported at 2017-Sep-22 21:00 UTC. Time now 2017-Sep-23 02:22 UTC.
Position N 48°24' W 124°36'.

Length 287 m; draft 8 m.

Type: Ship. MMSI: 245206000.

Wind from 240 at 4 knots

Barometer 1017.5 mb
Air temperature 12.8 ° C
Visibility: greater than 10.8 NM
Dewpoint 10.0 ° C
Water temperature 10.6 ° C

Date/timePositionNaut miles runAvg speedWind from/ knotsBaromVisibWave heightAir tempDewpointWater temp
2017-Sep-22 21:00N 48°24' W 124°36'11519.2 240 / 41017.510.8 12.810.010.6
2017-Sep-22 15:00N 49°30' W 127°00'2626.5 010 / 41018.310.8 13.810.812.7
2017-Sep-22 14:00N 49°48' W 127°30'26722.3 330 / 81018.010.8 12.811.212.6
2017-Sep-22 02:00N 53°44' W 130°54'1223.7
2017-Sep-22 01:30N 53°55' W 130°58'1223.3
2017-Sep-22 01:00N 54°07' W 131°01'163.2
2017-Sep-22 01:00N 54°06' W 131°00'1225.3 300 / 241019.510.8 14.010.611.3
2017-Sep-22 00:30N 54°18' W 131°05'1122.1
2017-Sep-22 00:00N 54°28' W 131°14'1122.8
2017-Sep-21 23:30N 54°37' W 131°26'1322.8
2017-Sep-21 22:56N 54°48' W 131°38'148 7.4
2017-Sep-21 03:00N 56°18' W 135°06'125 5.0 240 / 201019.210.8 18.013.112.3
2017-Sep-20 01:48N 58°17' W 136°15'516.0
2017-Sep-20 01:30N 58°19' W 136°07'714.7
2017-Sep-20 01:00N 58°26' W 135°59'713.0
2017-Sep-20 00:30N 58°32' W 136°04'713.2
2017-Sep-20 00:00N 58°38' W 136°03'612.6
2017-Sep-19 23:30N 58°43' W 136°10'815.8
2017-Sep-19 23:00N 58°47' W 136°23'1414.2
2017-Sep-19 22:00N 58°54' W 136°48'3 1.5 290 / 221007.810.8 12.7 5.8 6.7
2017-Sep-19 20:00N 58°54' W 136°54'7 6.8 080 / 101008.410.8 8.8 5.0 6.7
2017-Sep-19 19:00N 59°00' W 137°00'9 8.6 280 / 41008.410.8 10.0 6.0 6.5
2017-Sep-19 18:00N 58°54' W 136°48'1111.1 140 / 191009.210.8 6.8 5.6 7.1
2017-Sep-19 17:00N 58°48' W 136°30'8 9.4 090 / 71008.110.8 7.3 6.4 7.8
2017-Sep-19 16:05N 58°44' W 136°16'993.1
2017-Sep-19 16:00N 58°36' W 136°06'7409.6 150 / 21008.210.8 7.5 6.9 7.8
2017-Sep-19 15:58N 58°42' W 136°14'715.9
2017-Sep-19 15:30N 58°36' W 136°05'714.6
2017-Sep-19 15:00N 58°29' W 136°03'5392.0
2017-Sep-19 15:00N 58°24' W 136°00'1 2.6 140 / 61007.610.8 8.4 7.8 7.7
2017-Sep-19 14:30N 58°24' W 135°58'510.3
2017-Sep-19 14:01N 58°19' W 135°57'2118.7
2017-Sep-19 14:00N 58°18' W 135°54'4 8.7 090 / 121007.1 2.2 9.6 9.0 8.7
2017-Sep-19 13:30N 58°18' W 135°46'714.2
2017-Sep-19 12:59N 58°16' W 135°33'79 3.7
2017-Sep-18 16:00N 57°24' W 133°42'2222.2 200 / 181004.610.8 8.8 7.6 9.5
2017-Sep-18 15:00N 57°06' W 134°06'28118.7 200 / 121004.410.8 8.8 7.7 8.8
2017-Sep-18 00:00N 52°42' W 131°18'4214.1 120 / 291002.410.8 12.0 8.813.0
2017-Sep-17 21:00N 52°00' W 131°24'22620.8 270 / 221002.410.8 14.0 8.413.0
2017-Sep-17 10:05N 49°27' W 126°60'222.1
2017-Sep-17 10:00N 49°26' W 126°57'1122.0
2017-Sep-17 09:31N 49°19' W 126°44'1122.0
2017-Sep-17 09:01N 49°13' W 126°31'1122.0
2017-Sep-17 08:30N 49°06' W 126°18'1121.8
2017-Sep-17 08:01N 48°59' W 126°05'1121.4
2017-Sep-17 07:30N 48°53' W 125°51'1121.6
2017-Sep-17 07:01N 48°48' W 125°36'1121.9
2017-Sep-17 06:31N 48°43' W 125°22'1122.1
2017-Sep-17 06:01N 48°38' W 125°07'1121.1
2017-Sep-17 05:30N 48°33' W 124°53'1020.5
2017-Sep-17 05:01N 48°29' W 124°39'1122.7
2017-Sep-17 04:31N 48°25' W 124°23'1122.3
2017-Sep-17 04:00N 48°21' W 124°07'1121.9
2017-Sep-17 03:30N 48°17' W 123°52'1123.1
2017-Sep-17 03:01N 48°15' W 123°35'1019.7
2017-Sep-17 02:30N 48°10' W 123°22'815.3
2017-Sep-17 02:00N 48°12' W 123°11'1121.8
2017-Sep-17 01:30N 48°12' W 122°55'1121.6
2017-Sep-17 00:58N 48°07' W 122°39'1022.2
2017-Sep-17 00:30N 47°57' W 122°33'1121.3
2017-Sep-17 00:01N 47°48' W 122°26'184.7
2017-Sep-17 00:00N 47°48' W 122°24'1020.9 070 / 61013.3 5.4 17.2 4.212.2
2017-Sep-16 23:31N 47°38' W 122°26'2 4.1
2017-Sep-16 22:59N 47°38' W 122°23'0 0.0
2017-Sep-16 22:29N 47°38' W 122°23'0 0.0
2017-Sep-16 21:59N 47°38' W 122°23'0 0.0
2017-Sep-16 21:29N 47°38' W 122°23'0 0.0
2017-Sep-16 20:59N 47°38' W 122°23'0 0.0
2017-Sep-16 20:29N 47°38' W 122°23'0 0.0
2017-Sep-16 19:59N 47°38' W 122°23'0 0.0
2017-Sep-16 19:29N 47°38' W 122°23'0 0.0
2017-Sep-16 18:59N 47°38' W 122°23'0 0.0
2017-Sep-16 18:29N 47°38' W 122°23'0 0.0
2017-Sep-16 17:59N 47°38' W 122°23'0 0.0
2017-Sep-16 17:29N 47°38' W 122°23'0 0.0
2017-Sep-16 16:59N 47°38' W 122°23'0 0.0
2017-Sep-16 16:29N 47°38' W 122°23'0 0.0
2017-Sep-16 15:59N 47°38' W 122°23'0 0.0
2017-Sep-16 15:29N 47°38' W 122°23'0 0.0
2017-Sep-16 14:59N 47°38' W 122°23'0 0.0
2017-Sep-16 14:29N 47°38' W 122°23'0 0.0
2017-Sep-16 13:59N 47°38' W 122°23'0 0.0
2017-Sep-16 13:29N 47°38' W 122°23'0 0.0
2017-Sep-16 12:59N 47°38' W 122°23'0 0.0
2017-Sep-16 12:30N 47°38' W 122°23'2 3.7
2017-Sep-16 12:01N 47°37' W 122°26'612.9
2017-Sep-16 11:30N 47°44' W 122°27'714.7
2017-Sep-16 11:01N 47°51' W 122°28'714.7
2017-Sep-16 10:30N 47°57' W 122°35'816.7
2017-Sep-16 10:00N 48°05' W 122°40'815.8
2017-Sep-16 09:30N 48°11' W 122°48'816.3
2017-Sep-16 09:00N 48°12' W 122°60'816.9
2017-Sep-16 08:30N 48°11' W 123°12'714.8
2017-Sep-16 08:00N 48°09' W 123°23'815.7
2017-Sep-16 07:31N 48°16' W 123°29'816.6
2017-Sep-16 07:00N 48°23' W 123°24'2 3.3
2017-Sep-16 06:28N 48°25' W 123°23'0 0.0
2017-Sep-16 05:57N 48°25' W 123°23'0 0.0
2017-Sep-16 05:30N 48°25' W 123°23'0 0.0
2017-Sep-16 05:00N 48°25' W 123°23'0 0.0
2017-Sep-16 04:31N 48°25' W 123°23'0 0.0
2017-Sep-16 03:55N 48°25' W 123°23'0 0.0
2017-Sep-16 03:29N 48°25' W 123°23'0 0.0
2017-Sep-16 03:00N 48°25' W 123°23'0 0.0
2017-Sep-16 02:30N 48°25' W 123°23'0 0.0
2017-Sep-16 02:00N 48°25' W 123°23'0 0.0
2017-Sep-16 01:28N 48°25' W 123°23'0 0.0
2017-Sep-16 01:00N 48°25' W 123°23'1 1.3
2017-Sep-16 00:30N 48°25' W 123°24'510.6
2017-Sep-16 00:01N 48°20' W 123°24'816.4
2017-Sep-15 23:30N 48°13' W 123°32'1020.0
2017-Sep-15 23:00N 48°13' W 123°47'1020.3
2017-Sep-15 22:30N 48°16' W 124°02'1021.0
2017-Sep-15 22:00N 48°20' W 124°17'1020.7
2017-Sep-15 21:30N 48°24' W 124°31'816.5
2017-Sep-15 21:00N 48°28' W 124°42'815.5
2017-Sep-15 20:30N 48°28' W 124°53'816.1
2017-Sep-15 20:00N 48°29' W 125°06'815.7
2017-Sep-15 19:30N 48°32' W 125°17'1121.2
2017-Sep-15 19:00N 48°38' W 125°30'1121.1
2017-Sep-15 18:30N 48°45' W 125°42'1020.7
2017-Sep-15 18:00N 48°52' W 125°53'1020.3
2017-Sep-15 17:30N 48°59' W 126°05'1020.3
2017-Sep-15 17:00N 49°05' W 126°16'1020.1
2017-Sep-15 16:30N 49°12' W 126°28'1020.2
2017-Sep-15 16:01N 49°19' W 126°39'1020.3
2017-Sep-15 15:30N 49°25' W 126°51'1121.4
2017-Sep-15 15:01N 49°32' W 127°04'3173.3
2017-Sep-15 15:00N 49°30' W 127°06'1523.9 100 / 51018.010.8 14.710.312.5
2017-Sep-15 14:23N 49°40' W 127°22'922.8
2017-Sep-15 13:59N 49°47' W 127°31'2522.6
2017-Sep-15 12:53N 50°04' W 127°59'922.9
2017-Sep-15 12:30N 50°11' W 128°07'1122.8
2017-Sep-15 12:01N 50°21' W 128°17'1223.0
2017-Sep-15 11:30N 50°30' W 128°27'1223.0
2017-Sep-15 11:00N 50°40' W 128°37'1122.0
2017-Sep-15 10:30N 50°50' W 128°46'1122.0
2017-Sep-15 10:00N 50°59' W 128°53'1122.7
2017-Sep-15 09:31N 51°10' W 129°01'1223.0
2017-Sep-15 09:00N 51°20' W 129°09'1122.4
2017-Sep-15 08:30N 51°30' W 129°18'1122.3
2017-Sep-15 08:00N 51°39' W 129°27'1122.9
2017-Sep-15 07:31N 51°50' W 129°35'1223.1
2017-Sep-15 07:00N 52°00' W 129°43'1223.2
2017-Sep-15 06:31N 52°11' W 129°50'1223.2
2017-Sep-15 06:00N 52°21' W 129°58'1122.7
2017-Sep-15 05:30N 52°32' W 130°06'1322.7
2017-Sep-15 04:55N 52°44' W 130°15'922.7
2017-Sep-15 04:31N 52°52' W 130°21'1223.0
2017-Sep-15 04:00N 53°03' W 130°29'1122.5
2017-Sep-15 03:30N 53°13' W 130°37'1222.6
2017-Sep-15 02:59N 53°24' W 130°46'1122.7
2017-Sep-15 02:30N 53°34' W 130°52'1122.7
2017-Sep-15 02:00N 53°45' W 130°55'1122.9
2017-Sep-15 01:31N 53°56' W 130°58'1223.4
2017-Sep-15 01:01N 54°08' W 131°02'1223.5
2017-Sep-15 00:30N 54°19' W 131°07'1223.2
2017-Sep-15 00:01N 54°29' W 131°17'1122.3
2017-Sep-14 23:30N 54°39' W 131°28'1322.6
2017-Sep-14 22:56N 54°50' W 131°39'168 8.0
2017-Sep-14 02:00N 56°36' W 135°30'104 4.3 330 / 171026.0 5.4 13.4 8.912.7
2017-Sep-13 02:00N 58°18' W 136°06'4103.2 250 / 101025.0 5.4 11.8 8.5 8.0
2017-Sep-13 01:57N 58°18' W 136°14'715.5
2017-Sep-13 01:30N 58°21' W 136°02'611.3
2017-Sep-13 01:00N 58°26' W 136°00'510.1
2017-Sep-13 00:30N 58°31' W 136°04'713.2
2017-Sep-13 00:00N 58°38' W 136°03'612.5
2017-Sep-12 23:30N 58°43' W 136°09'714.1
2017-Sep-12 23:00N 58°46' W 136°21'  
Track history (hours):
 
Tides and Currents Weather Stations Pressure Air Temp Water Temp Dewpoint Dewpoint Depression Visibility Wind Speed Wind Dir Waves Ship Positions

Eurodam (Netherlands)

Last reported at 2017-Sep-22 21:00 UTC. Time now 2017-Sep-23 02:22 UTC.
Position N 48°24' W 124°36'.

Length 287 m; draft 8 m.

Type: Ship. MMSI: 245206000.

Wind from 240 at 4 knots

Barometer 1017.5 mb
Air temperature 12.8 ° C
Visibility: greater than 10.8 NM
Dewpoint 10.0 ° C
Water temperature 10.6 ° C

Date/timePositionNaut miles runAvg speedWind from/ knotsBaromVisibWave heightAir tempDewpointWater temp
2017-Sep-22 21:00N 48°24' W 124°36'11519.2 240 / 41017.510.8 12.810.010.6
2017-Sep-22 15:00N 49°30' W 127°00'2626.5 010 / 41018.310.8 13.810.812.7
2017-Sep-22 14:00N 49°48' W 127°30'26722.3 330 / 81018.010.8 12.811.212.6
2017-Sep-22 02:00N 53°44' W 130°54'1223.7
2017-Sep-22 01:30N 53°55' W 130°58'1223.3
2017-Sep-22 01:00N 54°07' W 131°01'163.2
2017-Sep-22 01:00N 54°06' W 131°00'1225.3 300 / 241019.510.8 14.010.611.3
2017-Sep-22 00:30N 54°18' W 131°05'1122.1
2017-Sep-22 00:00N 54°28' W 131°14'1122.8
2017-Sep-21 23:30N 54°37' W 131°26'1322.8
2017-Sep-21 22:56N 54°48' W 131°38'148 7.4
2017-Sep-21 03:00N 56°18' W 135°06'125 5.0 240 / 201019.210.8 18.013.112.3
2017-Sep-20 01:48N 58°17' W 136°15'516.0
2017-Sep-20 01:30N 58°19' W 136°07'714.7
2017-Sep-20 01:00N 58°26' W 135°59'713.0
2017-Sep-20 00:30N 58°32' W 136°04'713.2
2017-Sep-20 00:00N 58°38' W 136°03'612.6
2017-Sep-19 23:30N 58°43' W 136°10'815.8
2017-Sep-19 23:00N 58°47' W 136°23'1414.2
2017-Sep-19 22:00N 58°54' W 136°48'3 1.5 290 / 221007.810.8 12.7 5.8 6.7
2017-Sep-19 20:00N 58°54' W 136°54'7 6.8 080 / 101008.410.8 8.8 5.0 6.7
2017-Sep-19 19:00N 59°00' W 137°00'9 8.6 280 / 41008.410.8 10.0 6.0 6.5
2017-Sep-19 18:00N 58°54' W 136°48'1111.1 140 / 191009.210.8 6.8 5.6 7.1
2017-Sep-19 17:00N 58°48' W 136°30'8 9.4 090 / 71008.110.8 7.3 6.4 7.8
2017-Sep-19 16:05N 58°44' W 136°16'993.1
2017-Sep-19 16:00N 58°36' W 136°06'7409.6 150 / 21008.210.8 7.5 6.9 7.8
2017-Sep-19 15:58N 58°42' W 136°14'715.9
2017-Sep-19 15:30N 58°36' W 136°05'714.6
2017-Sep-19 15:00N 58°29' W 136°03'5392.0
2017-Sep-19 15:00N 58°24' W 136°00'1 2.6 140 / 61007.610.8 8.4 7.8 7.7
2017-Sep-19 14:30N 58°24' W 135°58'510.3
2017-Sep-19 14:01N 58°19' W 135°57'2118.7
2017-Sep-19 14:00N 58°18' W 135°54'4 8.7 090 / 121007.1 2.2 9.6 9.0 8.7
2017-Sep-19 13:30N 58°18' W 135°46'714.2
2017-Sep-19 12:59N 58°16' W 135°33'79 3.7
2017-Sep-18 16:00N 57°24' W 133°42'2222.2 200 / 181004.610.8 8.8 7.6 9.5
2017-Sep-18 15:00N 57°06' W 134°06'28118.7 200 / 121004.410.8 8.8 7.7 8.8
2017-Sep-18 00:00N 52°42' W 131°18'4214.1 120 / 291002.410.8 12.0 8.813.0
2017-Sep-17 21:00N 52°00' W 131°24'22620.8 270 / 221002.410.8 14.0 8.413.0
2017-Sep-17 10:05N 49°27' W 126°60'222.1
2017-Sep-17 10:00N 49°26' W 126°57'1122.0
2017-Sep-17 09:31N 49°19' W 126°44'1122.0
2017-Sep-17 09:01N 49°13' W 126°31'1122.0
2017-Sep-17 08:30N 49°06' W 126°18'1121.8
2017-Sep-17 08:01N 48°59' W 126°05'1121.4
2017-Sep-17 07:30N 48°53' W 125°51'1121.6
2017-Sep-17 07:01N 48°48' W 125°36'1121.9
2017-Sep-17 06:31N 48°43' W 125°22'1122.1
2017-Sep-17 06:01N 48°38' W 125°07'1121.1
2017-Sep-17 05:30N 48°33' W 124°53'1020.5
2017-Sep-17 05:01N 48°29' W 124°39'1122.7
2017-Sep-17 04:31N 48°25' W 124°23'1122.3
2017-Sep-17 04:00N 48°21' W 124°07'1121.9
2017-Sep-17 03:30N 48°17' W 123°52'1123.1
2017-Sep-17 03:01N 48°15' W 123°35'1019.7
2017-Sep-17 02:30N 48°10' W 123°22'815.3
2017-Sep-17 02:00N 48°12' W 123°11'1121.8
2017-Sep-17 01:30N 48°12' W 122°55'1121.6
2017-Sep-17 00:58N 48°07' W 122°39'1022.2
2017-Sep-17 00:30N 47°57' W 122°33'1121.3
2017-Sep-17 00:01N 47°48' W 122°26'184.7
2017-Sep-17 00:00N 47°48' W 122°24'1020.9 070 / 61013.3 5.4 17.2 4.212.2
2017-Sep-16 23:31N 47°38' W 122°26'2 4.1
2017-Sep-16 22:59N 47°38' W 122°23'0 0.0
2017-Sep-16 22:29N 47°38' W 122°23'0 0.0
2017-Sep-16 21:59N 47°38' W 122°23'0 0.0
2017-Sep-16 21:29N 47°38' W 122°23'0 0.0
2017-Sep-16 20:59N 47°38' W 122°23'0 0.0
2017-Sep-16 20:29N 47°38' W 122°23'0 0.0
2017-Sep-16 19:59N 47°38' W 122°23'0 0.0
2017-Sep-16 19:29N 47°38' W 122°23'0 0.0
2017-Sep-16 18:59N 47°38' W 122°23'0 0.0
2017-Sep-16 18:29N 47°38' W 122°23'0 0.0
2017-Sep-16 17:59N 47°38' W 122°23'0 0.0
2017-Sep-16 17:29N 47°38' W 122°23'0 0.0
2017-Sep-16 16:59N 47°38' W 122°23'0 0.0
2017-Sep-16 16:29N 47°38' W 122°23'0 0.0
2017-Sep-16 15:59N 47°38' W 122°23'0 0.0
2017-Sep-16 15:29N 47°38' W 122°23'0 0.0
2017-Sep-16 14:59N 47°38' W 122°23'0 0.0
2017-Sep-16 14:29N 47°38' W 122°23'0 0.0
2017-Sep-16 13:59N 47°38' W 122°23'0 0.0
2017-Sep-16 13:29N 47°38' W 122°23'0 0.0
2017-Sep-16 12:59N 47°38' W 122°23'0 0.0
2017-Sep-16 12:30N 47°38' W 122°23'2 3.7
2017-Sep-16 12:01N 47°37' W 122°26'612.9
2017-Sep-16 11:30N 47°44' W 122°27'714.7
2017-Sep-16 11:01N 47°51' W 122°28'714.7
2017-Sep-16 10:30N 47°57' W 122°35'816.7
2017-Sep-16 10:00N 48°05' W 122°40'815.8
2017-Sep-16 09:30N 48°11' W 122°48'816.3
2017-Sep-16 09:00N 48°12' W 122°60'816.9
2017-Sep-16 08:30N 48°11' W 123°12'714.8
2017-Sep-16 08:00N 48°09' W 123°23'815.7
2017-Sep-16 07:31N 48°16' W 123°29'816.6
2017-Sep-16 07:00N 48°23' W 123°24'2 3.3
2017-Sep-16 06:28N 48°25' W 123°23'0 0.0
2017-Sep-16 05:57N 48°25' W 123°23'0 0.0
2017-Sep-16 05:30N 48°25' W 123°23'0 0.0
2017-Sep-16 05:00N 48°25' W 123°23'0 0.0
2017-Sep-16 04:31N 48°25' W 123°23'0 0.0
2017-Sep-16 03:55N 48°25' W 123°23'0 0.0
2017-Sep-16 03:29N 48°25' W 123°23'0 0.0
2017-Sep-16 03:00N 48°25' W 123°23'0 0.0
2017-Sep-16 02:30N 48°25' W 123°23'0 0.0
2017-Sep-16 02:00N 48°25' W 123°23'0 0.0
2017-Sep-16 01:28N 48°25' W 123°23'0 0.0
2017-Sep-16 01:00N 48°25' W 123°23'1 1.3
2017-Sep-16 00:30N 48°25' W 123°24'510.6
2017-Sep-16 00:01N 48°20' W 123°24'816.4
2017-Sep-15 23:30N 48°13' W 123°32'1020.0
2017-Sep-15 23:00N 48°13' W 123°47'1020.3
2017-Sep-15 22:30N 48°16' W 124°02'1021.0
2017-Sep-15 22:00N 48°20' W 124°17'1020.7
2017-Sep-15 21:30N 48°24' W 124°31'816.5
2017-Sep-15 21:00N 48°28' W 124°42'815.5
2017-Sep-15 20:30N 48°28' W 124°53'816.1
2017-Sep-15 20:00N 48°29' W 125°06'815.7
2017-Sep-15 19:30N 48°32' W 125°17'1121.2
2017-Sep-15 19:00N 48°38' W 125°30'1121.1
2017-Sep-15 18:30N 48°45' W 125°42'1020.7
2017-Sep-15 18:00N 48°52' W 125°53'1020.3
2017-Sep-15 17:30N 48°59' W 126°05'1020.3
2017-Sep-15 17:00N 49°05' W 126°16'1020.1
2017-Sep-15 16:30N 49°12' W 126°28'1020.2
2017-Sep-15 16:01N 49°19' W 126°39'1020.3
2017-Sep-15 15:30N 49°25' W 126°51'1121.4
2017-Sep-15 15:01N 49°32' W 127°04'3173.3
2017-Sep-15 15:00N 49°30' W 127°06'1523.9 100 / 51018.010.8 14.710.312.5
2017-Sep-15 14:23N 49°40' W 127°22'922.8
2017-Sep-15 13:59N 49°47' W 127°31'2522.6
2017-Sep-15 12:53N 50°04' W 127°59'922.9
2017-Sep-15 12:30N 50°11' W 128°07'1122.8
2017-Sep-15 12:01N 50°21' W 128°17'1223.0
2017-Sep-15 11:30N 50°30' W 128°27'1223.0
2017-Sep-15 11:00N 50°40' W 128°37'1122.0
2017-Sep-15 10:30N 50°50' W 128°46'1122.0
2017-Sep-15 10:00N 50°59' W 128°53'1122.7
2017-Sep-15 09:31N 51°10' W 129°01'1223.0
2017-Sep-15 09:00N 51°20' W 129°09'1122.4
2017-Sep-15 08:30N 51°30' W 129°18'1122.3
2017-Sep-15 08:00N 51°39' W 129°27'1122.9
2017-Sep-15 07:31N 51°50' W 129°35'1223.1
2017-Sep-15 07:00N 52°00' W 129°43'1223.2
2017-Sep-15 06:31N 52°11' W 129°50'1223.2
2017-Sep-15 06:00N 52°21' W 129°58'1122.7
2017-Sep-15 05:30N 52°32' W 130°06'1322.7
2017-Sep-15 04:55N 52°44' W 130°15'922.7
2017-Sep-15 04:31N 52°52' W 130°21'1223.0
2017-Sep-15 04:00N 53°03' W 130°29'1122.5
2017-Sep-15 03:30N 53°13' W 130°37'1222.6
2017-Sep-15 02:59N 53°24' W 130°46'1122.7
2017-Sep-15 02:30N 53°34' W 130°52'1122.7
2017-Sep-15 02:00N 53°45' W 130°55'1122.9
2017-Sep-15 01:31N 53°56' W 130°58'1223.4
2017-Sep-15 01:01N 54°08' W 131°02'1223.5
2017-Sep-15 00:30N 54°19' W 131°07'1223.2
2017-Sep-15 00:01N 54°29' W 131°17'1122.3
2017-Sep-14 23:30N 54°39' W 131°28'1322.6
2017-Sep-14 22:56N 54°50' W 131°39'168 8.0
2017-Sep-14 02:00N 56°36' W 135°30'104 4.3 330 / 171026.0 5.4 13.4 8.912.7
2017-Sep-13 02:00N 58°18' W 136°06'4103.2 250 / 101025.0 5.4 11.8 8.5 8.0
2017-Sep-13 01:57N 58°18' W 136°14'715.5
2017-Sep-13 01:30N 58°21' W 136°02'611.3
2017-Sep-13 01:00N 58°26' W 136°00'510.1
2017-Sep-13 00:30N 58°31' W 136°04'713.2
2017-Sep-13 00:00N 58°38' W 136°03'612.5
2017-Sep-12 23:30N 58°43' W 136°09'714.1
2017-Sep-12 23:00N 58°46' W 136°21'  

Dump ship's entire track history